createdAt,value
2023-03-27T00:00:10.327Z,1.42
2023-03-27T00:02:39.595Z,1.73
2023-03-27T00:05:08.099Z,1.25
2023-03-27T00:07:37.160Z,1.20
2023-03-27T00:10:05.005Z,1.40
2023-03-27T00:12:33.536Z,1.25
2023-03-27T00:15:01.694Z,1.48
2023-03-27T00:17:30.200Z,1.08
2023-03-27T00:19:59.395Z,1.20
2023-03-27T00:22:27.049Z,1.47
2023-03-27T00:24:54.848Z,1.52
2023-03-27T00:27:22.481Z,1.27
2023-03-27T00:29:50.148Z,0.90
2023-03-27T00:32:17.760Z,1.27
2023-03-27T00:34:45.510Z,1.80
2023-03-27T00:37:14.676Z,1.77
2023-03-27T00:39:42.572Z,1.70
2023-03-27T00:42:11.907Z,1.65
2023-03-27T00:44:39.882Z,1.60
2023-03-27T00:47:10.228Z,1.42
2023-03-27T00:49:38.203Z,1.40
2023-03-27T00:52:07.217Z,1.70
2023-03-27T00:54:40.210Z,1.42
2023-03-27T00:57:10.976Z,1.08
2023-03-27T00:59:41.854Z,1.10
2023-03-27T01:02:10.132Z,1.50
2023-03-27T01:04:38.829Z,1.00
2023-03-27T01:07:07.438Z,1.80
2023-03-27T01:09:36.557Z,1.25
2023-03-27T01:12:16.158Z,1.30
2023-03-27T01:14:51.596Z,1.00
2023-03-27T01:17:32.419Z,1.45
2023-03-27T01:20:30.308Z,1.33
2023-03-27T01:23:10.471Z,1.30
2023-03-27T01:26:00.198Z,1.70
2023-03-27T01:28:44.847Z,1.47
2023-03-27T01:31:24.633Z,1.40
2023-03-27T01:34:26.445Z,1.20
2023-03-27T01:37:11.052Z,1.50
2023-03-27T01:39:51.111Z,1.40
2023-03-27T01:42:23.470Z,1.00
2023-03-27T01:44:55.062Z,1.17
2023-03-27T01:47:33.211Z,1.23
2023-03-27T01:50:08.247Z,1.30
2023-03-27T01:52:39.986Z,1.23
2023-03-27T01:55:13.265Z,1.40
2023-03-27T01:57:50.124Z,1.05
2023-03-27T02:00:22.229Z,1.08
2023-03-27T02:02:53.798Z,1.60
2023-03-27T02:05:26.128Z,1.10
2023-03-27T02:07:55.798Z,1.60
2023-03-27T02:10:28.970Z,0.80
2023-03-27T02:12:59.528Z,0.98
2023-03-27T02:15:31.591Z,1.10
2023-03-27T02:18:05.283Z,1.10
2023-03-27T02:20:33.937Z,1.00
2023-03-27T02:23:01.970Z,0.98
2023-03-27T02:25:33.162Z,1.10
2023-03-27T02:28:14.942Z,1.25
2023-03-27T02:31:06.290Z,1.10
2023-03-27T02:33:45.103Z,1.17
2023-03-27T02:36:21.102Z,1.25
2023-03-27T02:38:53.864Z,0.90
2023-03-27T02:41:27.774Z,1.27
2023-03-27T02:44:01.960Z,1.40
2023-03-27T02:46:33.599Z,1.40
2023-03-27T02:49:04.758Z,0.95
2023-03-27T02:51:35.002Z,1.05
2023-03-27T02:54:05.575Z,0.93
2023-03-27T02:56:38.482Z,1.10
2023-03-27T02:59:08.862Z,0.93
2023-03-27T03:01:37.863Z,0.98
2023-03-27T03:04:08.622Z,1.20
2023-03-27T03:06:36.589Z,1.10
2023-03-27T03:09:06.261Z,1.00
2023-03-27T03:11:38.007Z,1.00
2023-03-27T03:14:05.840Z,1.20
2023-03-27T03:16:33.919Z,1.17
2023-03-27T03:19:01.934Z,1.20
2023-03-27T03:21:29.686Z,1.07
2023-03-27T03:23:58.622Z,1.20
2023-03-27T03:26:27.728Z,0.82
2023-03-27T03:29:00.838Z,1.00
2023-03-27T03:31:42.881Z,1.10
2023-03-27T03:34:11.580Z,0.90
2023-03-27T03:36:41.923Z,0.60
2023-03-27T03:39:11.365Z,0.88
2023-03-27T03:41:39.165Z,0.95
2023-03-27T03:44:08.401Z,0.82
2023-03-27T03:46:36.200Z,0.70
2023-03-27T03:49:05.547Z,1.20
2023-03-27T03:51:33.295Z,1.25
2023-03-27T03:54:01.463Z,1.33
2023-03-27T03:56:30.577Z,0.90
2023-03-27T03:58:58.723Z,1.15
2023-03-27T04:01:28.082Z,0.63
2023-03-27T04:03:56.393Z,0.90
2023-03-27T04:06:25.552Z,1.27
2023-03-27T04:08:53.725Z,1.35
2023-03-27T04:11:21.707Z,1.00
2023-03-27T04:13:49.463Z,0.83
2023-03-27T04:16:17.291Z,0.90
2023-03-27T04:18:46.648Z,1.00
2023-03-27T04:21:15.698Z,0.67
2023-03-27T04:23:44.924Z,1.20
2023-03-27T04:26:13.427Z,0.77
2023-03-27T04:28:41.718Z,0.40
2023-03-27T04:31:10.865Z,0.90
2023-03-27T04:33:46.450Z,0.88
2023-03-27T04:36:15.883Z,0.75
2023-03-27T04:38:44.202Z,0.77
2023-03-27T04:41:11.922Z,0.63
2023-03-27T04:43:40.205Z,0.93
2023-03-27T04:46:09.161Z,0.93
2023-03-27T04:48:38.511Z,0.82
2023-03-27T04:51:08.327Z,0.55
2023-03-27T04:53:37.973Z,0.93
2023-03-27T04:56:07.175Z,1.03
2023-03-27T04:58:37.294Z,0.90
2023-03-27T05:01:05.987Z,0.88
2023-03-27T05:03:34.769Z,0.75
2023-03-27T05:06:04.013Z,0.63
2023-03-27T05:08:31.867Z,0.73
2023-03-27T05:11:01.012Z,0.60
2023-03-27T05:13:29.345Z,0.65
2023-03-27T05:15:59.317Z,0.60
2023-03-27T05:18:27.581Z,0.60
2023-03-27T05:20:57.161Z,0.80
2023-03-27T05:23:24.994Z,0.60
2023-03-27T05:25:59.668Z,0.73
2023-03-27T05:28:29.600Z,0.90
2023-03-27T05:30:57.756Z,1.23
2023-03-27T05:33:26.750Z,1.40
2023-03-27T05:35:54.534Z,1.55
2023-03-27T05:38:22.773Z,1.70
2023-03-27T05:40:52.114Z,1.65
2023-03-27T05:43:19.924Z,2.10
2023-03-27T05:45:49.430Z,1.55
2023-03-27T05:48:17.448Z,1.40
2023-03-27T05:50:45.307Z,1.02
2023-03-27T05:53:13.068Z,0.60
2023-03-27T05:55:40.945Z,0.98
2023-03-27T05:58:10.079Z,0.95
2023-03-27T06:00:38.832Z,0.73
2023-03-27T06:03:07.986Z,0.90
2023-03-27T06:05:35.843Z,0.90
2023-03-27T06:08:03.621Z,0.75
2023-03-27T06:10:33.779Z,1.00
2023-03-27T06:13:02.768Z,1.08
2023-03-27T06:15:31.084Z,0.93
2023-03-27T06:17:58.943Z,0.82
2023-03-27T06:20:28.128Z,0.90
2023-03-27T06:22:57.487Z,0.75
2023-03-27T06:25:25.926Z,0.73
2023-03-27T06:27:54.507Z,1.00
2023-03-27T06:30:24.708Z,0.80
2023-03-27T06:32:54.272Z,0.73
2023-03-27T06:35:23.724Z,1.00
2023-03-27T06:37:53.024Z,0.90
2023-03-27T06:40:22.799Z,0.82
2023-03-27T06:42:51.980Z,1.00
2023-03-27T06:45:19.723Z,0.70
2023-03-27T06:47:54.888Z,1.07
2023-03-27T06:50:25.429Z,0.73
2023-03-27T06:52:54.671Z,0.68
2023-03-27T06:55:24.234Z,0.80
2023-03-27T06:57:53.809Z,0.95
2023-03-27T07:00:24.588Z,0.82
2023-03-27T07:02:55.752Z,0.60
2023-03-27T07:05:23.842Z,0.88
2023-03-27T07:07:51.912Z,0.65
2023-03-27T07:10:21.724Z,0.52
2023-03-27T07:12:50.717Z,0.70
2023-03-27T07:15:18.965Z,1.20
2023-03-27T07:17:54.161Z,0.75
2023-03-27T07:20:22.125Z,0.60
2023-03-27T07:22:49.791Z,0.85
2023-03-27T07:25:17.528Z,1.13
2023-03-27T07:27:46.700Z,0.70
2023-03-27T07:30:15.212Z,0.82
2023-03-27T07:32:44.717Z,1.42
2023-03-27T07:35:13.139Z,0.80
2023-03-27T07:37:40.824Z,1.33
2023-03-27T07:40:13.161Z,1.30
2023-03-27T07:42:45.298Z,1.27
2023-03-27T07:45:15.070Z,1.55
2023-03-27T07:47:43.397Z,1.30
2023-03-27T07:50:13.541Z,0.88
2023-03-27T07:52:43.605Z,1.48
2023-03-27T07:55:14.208Z,1.30
2023-03-27T07:57:59.759Z,1.23
2023-03-27T08:00:31.277Z,1.00
2023-03-27T08:03:07.307Z,0.93
2023-03-27T08:05:35.350Z,0.88
2023-03-27T08:08:03.167Z,0.95
2023-03-27T08:10:30.968Z,1.00
2023-03-27T08:12:58.679Z,0.85
2023-03-27T08:15:26.408Z,1.50
2023-03-27T08:17:56.904Z,0.98
2023-03-27T08:20:24.828Z,1.63
2023-03-27T08:22:53.004Z,1.33
2023-03-27T08:25:22.378Z,0.67
2023-03-27T08:27:50.675Z,0.88
2023-03-27T08:30:19.579Z,0.98
2023-03-27T08:32:47.286Z,0.77
2023-03-27T08:35:16.788Z,1.17
2023-03-27T08:37:44.972Z,0.77
2023-03-27T08:40:19.859Z,0.70
2023-03-27T08:42:50.323Z,1.38
2023-03-27T08:45:21.143Z,0.40
2023-03-27T08:47:52.513Z,0.60
2023-03-27T08:50:31.882Z,0.70
2023-03-27T08:52:59.623Z,0.50
2023-03-27T08:55:35.937Z,0.35
2023-03-27T08:58:03.619Z,0.50
2023-03-27T09:00:35.699Z,0.30
2023-03-27T09:03:10.890Z,0.40
2023-03-27T09:05:43.660Z,0.40
2023-03-27T09:08:17.728Z,0.30
2023-03-27T09:10:46.934Z,0.35
2023-03-27T09:13:16.458Z,0.55
2023-03-27T09:15:50.038Z,0.43
2023-03-27T09:18:21.843Z,0.30
2023-03-27T09:20:54.969Z,0.50
2023-03-27T09:23:25.864Z,0.40
2023-03-27T09:25:56.671Z,0.53
2023-03-27T09:28:28.438Z,0.40
2023-03-27T09:30:57.301Z,0.30
2023-03-27T09:33:25.578Z,0.32
2023-03-27T09:35:55.209Z,0.20
2023-03-27T09:38:27.944Z,0.30
2023-03-27T09:40:59.103Z,0.30
2023-03-27T09:43:30.291Z,0.20
2023-03-27T09:45:59.913Z,0.28
2023-03-27T09:48:32.985Z,0.30
2023-03-27T09:51:02.427Z,0.40
2023-03-27T09:53:30.098Z,0.20
2023-03-27T09:56:01.080Z,0.22
2023-03-27T09:58:34.852Z,0.00
2023-03-27T10:01:15.669Z,0.00
2023-03-27T10:03:49.134Z,0.00
2023-03-27T10:06:27.932Z,0.00
2023-03-27T10:08:56.644Z,0.10
2023-03-27T10:11:27.361Z,0.20
2023-03-27T10:13:55.688Z,0.10
2023-03-27T10:16:24.238Z,0.00
2023-03-27T10:18:55.585Z,0.00
2023-03-27T10:21:29.653Z,0.10
2023-03-27T10:24:02.586Z,0.10
2023-03-27T10:26:33.036Z,0.20
2023-03-27T10:29:05.494Z,0.25
2023-03-27T10:31:34.871Z,0.13
2023-03-27T10:34:04.037Z,0.40
2023-03-27T10:36:35.144Z,0.43
2023-03-27T10:39:07.275Z,0.70
2023-03-27T10:41:37.014Z,0.70
2023-03-27T10:44:07.022Z,0.30
2023-03-27T10:46:39.582Z,0.40
2023-03-27T10:49:17.581Z,0.30
2023-03-27T10:51:50.659Z,0.20
2023-03-27T10:54:28.990Z,0.30
2023-03-27T10:57:00.111Z,0.25
2023-03-27T11:02:22.055Z,0.47
2023-03-27T11:03:47.676Z,0.30
2023-03-27T11:04:53.044Z,0.20
2023-03-27T11:07:25.610Z,0.10
2023-03-27T11:09:58.898Z,0.10
2023-03-27T11:12:28.313Z,0.15
2023-03-27T11:15:02.010Z,0.17
2023-03-27T11:17:32.897Z,0.15
2023-03-27T11:20:07.329Z,0.30
2023-03-27T11:22:40.787Z,0.30
2023-03-27T11:25:18.412Z,0.30
2023-03-27T11:27:51.229Z,0.30
2023-03-27T11:30:29.272Z,0.30
2023-03-27T11:33:06.036Z,0.50
2023-03-27T11:35:37.615Z,0.60
2023-03-27T11:38:09.511Z,0.40
2023-03-27T11:40:39.264Z,0.28
2023-03-27T11:43:07.112Z,0.30
2023-03-27T11:45:41.466Z,0.50
2023-03-27T11:48:32.949Z,0.30
2023-03-27T11:51:02.953Z,0.40
2023-03-27T11:54:05.482Z,0.40
2023-03-27T11:56:43.561Z,0.45
2023-03-27T11:59:41.602Z,0.60
2023-03-27T12:02:22.045Z,0.70
2023-03-27T12:04:53.234Z,0.63
2023-03-27T12:07:35.801Z,0.40
2023-03-27T12:10:23.484Z,0.80
2023-03-27T12:13:28.785Z,0.70
2023-03-27T12:16:12.280Z,0.90
2023-03-27T12:21:29.337Z,0.52
2023-03-27T12:24:19.595Z,0.73
2023-03-27T12:27:07.840Z,0.22
2023-03-27T12:29:51.940Z,0.45
2023-03-27T12:32:28.265Z,0.30
2023-03-27T12:34:58.988Z,0.10
2023-03-27T12:37:31.070Z,0.10
2023-03-27T12:40:00.127Z,0.10
2023-03-27T12:42:44.575Z,0.00
2023-03-27T12:45:18.099Z,0.10
2023-03-27T12:47:47.518Z,0.10
2023-03-27T12:50:20.564Z,0.00
2023-03-27T12:52:48.283Z,0.10
2023-03-27T12:55:33.976Z,0.20
2023-03-27T12:58:05.297Z,0.17
2023-03-27T13:00:34.261Z,0.15
2023-03-27T13:03:17.284Z,0.10
2023-03-27T13:06:22.570Z,0.30
2023-03-27T13:09:10.437Z,0.20
2023-03-27T13:11:50.382Z,0.20
2023-03-27T13:14:46.646Z,0.10
2023-03-27T13:17:29.219Z,0.10
2023-03-27T13:20:07.830Z,0.10
2023-03-27T13:22:45.611Z,0.40
2023-03-27T13:25:21.738Z,0.30
2023-03-27T13:28:04.772Z,0.40
2023-03-27T13:30:48.708Z,0.20
2023-03-27T13:33:18.180Z,0.20
2023-03-27T13:36:03.198Z,0.80
2023-03-27T13:38:49.158Z,1.67
2023-03-27T13:42:06.139Z,0.20
2023-03-27T13:44:42.604Z,0.40
2023-03-27T13:47:40.482Z,0.20
2023-03-27T13:50:21.010Z,0.10
2023-03-27T13:53:13.323Z,0.20
2023-03-27T13:56:10.556Z,0.20
2023-03-27T13:59:03.674Z,0.20
2023-03-27T14:01:40.593Z,0.30
2023-03-27T14:04:38.690Z,0.30
2023-03-27T14:07:48.644Z,0.50
2023-03-27T14:10:25.337Z,0.25
2023-03-27T14:13:04.573Z,0.60
2023-03-27T14:15:56.191Z,0.40
2023-03-27T14:18:44.939Z,0.20
2023-03-27T14:21:27.563Z,0.80
2023-03-27T14:24:08.709Z,0.40
2023-03-27T14:26:38.091Z,0.45
2023-03-27T14:29:06.990Z,0.80
2023-03-27T14:31:35.861Z,0.30
2023-03-27T14:34:06.358Z,0.40
2023-03-27T14:36:36.128Z,0.40
2023-03-27T14:39:08.368Z,0.40
2023-03-27T14:41:36.146Z,0.30
2023-03-27T14:44:05.841Z,0.40
2023-03-27T14:46:34.133Z,0.40
2023-03-27T14:49:02.093Z,0.40
2023-03-27T14:51:41.839Z,0.20
2023-03-27T14:54:13.312Z,0.50
2023-03-27T14:56:47.241Z,0.40
2023-03-27T14:59:19.835Z,0.22
2023-03-27T15:01:48.441Z,0.52
2023-03-27T15:04:16.301Z,0.32
2023-03-27T15:06:50.004Z,0.35
2023-03-27T15:09:20.108Z,0.30
2023-03-27T15:11:50.010Z,0.45
2023-03-27T15:14:20.788Z,0.30
2023-03-27T15:16:52.862Z,0.50
2023-03-27T15:19:21.962Z,0.47
2023-03-27T15:21:57.012Z,0.30
2023-03-27T15:24:32.791Z,0.50
2023-03-27T15:27:01.502Z,0.40
2023-03-27T15:29:39.203Z,0.70
2023-03-27T15:32:11.136Z,0.60
2023-03-27T15:34:46.026Z,0.63
2023-03-27T15:37:18.614Z,0.65
2023-03-27T15:40:01.596Z,0.35
2023-03-27T15:42:35.077Z,0.20
2023-03-27T15:45:03.740Z,0.30
2023-03-27T15:47:32.846Z,0.30
2023-03-27T15:50:16.717Z,0.77
2023-03-27T15:52:50.832Z,0.57
2023-03-27T15:55:33.056Z,0.50
2023-03-27T16:00:16.153Z,0.60
2023-03-27T16:02:43.953Z,0.22
2023-03-27T16:05:17.408Z,0.43
2023-03-27T16:07:47.154Z,0.63
2023-03-27T16:10:15.989Z,0.60
2023-03-27T16:12:51.280Z,0.50
2023-03-27T16:15:31.498Z,0.32
2023-03-27T16:18:00.240Z,0.45
2023-03-27T16:20:40.955Z,0.70
2023-03-27T16:23:08.821Z,0.47
2023-03-27T16:25:36.720Z,0.60
2023-03-27T16:28:04.512Z,0.65
2023-03-27T16:30:36.076Z,0.75
2023-03-27T16:33:04.446Z,0.70
2023-03-27T16:35:33.901Z,0.73
2023-03-27T16:38:02.007Z,0.68
2023-03-27T16:40:29.654Z,1.10
2023-03-27T16:42:57.538Z,0.68
2023-03-27T16:45:25.497Z,0.88
2023-03-27T16:47:54.829Z,0.70
2023-03-27T16:50:26.688Z,0.90
2023-03-27T16:52:54.507Z,0.73
2023-03-27T16:55:22.183Z,0.90
2023-03-27T16:57:52.309Z,0.77
2023-03-27T17:00:20.798Z,0.90
2023-03-27T17:02:48.717Z,0.40
2023-03-27T17:05:17.917Z,0.60
2023-03-27T17:07:46.800Z,0.30
2023-03-27T17:10:14.704Z,0.32
2023-03-27T17:12:42.511Z,0.43
2023-03-27T17:15:10.692Z,0.57
2023-03-27T17:17:38.439Z,0.50
2023-03-27T17:20:07.764Z,0.38
2023-03-27T17:22:37.102Z,0.47
2023-03-27T17:25:06.058Z,0.50
2023-03-27T17:27:33.979Z,0.75
2023-03-27T17:30:01.699Z,0.40
2023-03-27T17:32:29.414Z,0.80
2023-03-27T17:34:57.222Z,0.63
2023-03-27T17:37:25.898Z,0.80
2023-03-27T17:39:55.024Z,0.75
2023-03-27T17:42:22.897Z,0.40
2023-03-27T17:44:50.725Z,0.82
2023-03-27T17:47:18.486Z,0.82
2023-03-27T17:49:46.160Z,0.47
2023-03-27T17:52:14.160Z,0.80
2023-03-27T17:54:41.942Z,0.75
2023-03-27T17:57:11.017Z,0.80
2023-03-27T17:59:38.767Z,0.60
2023-03-27T18:02:07.153Z,0.93
2023-03-27T18:04:35.286Z,0.90
2023-03-27T18:07:03.125Z,0.50
2023-03-27T18:09:31.280Z,0.70
2023-03-27T18:11:59.054Z,0.38
2023-03-27T18:14:28.354Z,0.90
2023-03-27T18:16:56.102Z,0.82
2023-03-27T18:19:24.083Z,1.15
2023-03-27T18:21:51.859Z,0.90
2023-03-27T18:24:19.603Z,0.77
2023-03-27T18:26:48.143Z,0.68
2023-03-27T18:29:15.918Z,0.73
2023-03-27T18:31:45.141Z,0.57
2023-03-27T18:34:12.913Z,0.60
2023-03-27T18:36:40.795Z,0.85
2023-03-27T18:39:08.527Z,0.70
2023-03-27T18:41:36.574Z,0.50
2023-03-27T18:44:04.362Z,0.60
2023-03-27T18:46:32.186Z,0.50
2023-03-27T18:49:10.275Z,1.30
2023-03-27T18:51:45.510Z,1.52
2023-03-27T18:54:13.668Z,1.60
2023-03-27T18:56:41.503Z,1.10
2023-03-27T18:59:10.194Z,1.10
2023-03-27T19:01:38.973Z,1.10
2023-03-27T19:04:08.540Z,1.60
2023-03-27T19:06:36.618Z,1.20
2023-03-27T19:09:05.598Z,1.40
2023-03-27T19:11:33.337Z,2.23
2023-03-27T19:14:01.006Z,1.10
2023-03-27T19:16:28.723Z,1.13
2023-03-27T19:18:56.467Z,2.10
2023-03-27T19:21:25.591Z,1.70
2023-03-27T19:23:53.341Z,1.25
2023-03-27T19:26:21.091Z,1.55
2023-03-27T19:28:48.753Z,1.38
2023-03-27T19:31:16.997Z,1.60
2023-03-27T19:33:45.722Z,1.10
2023-03-27T19:36:13.583Z,1.13
2023-03-27T19:38:42.893Z,1.60
2023-03-27T19:41:11.042Z,2.63
2023-03-27T19:43:38.848Z,1.98
2023-03-27T19:46:15.760Z,1.02
2023-03-27T19:48:47.388Z,1.13
2023-03-27T19:51:15.451Z,1.10
2023-03-27T19:53:44.538Z,0.60
2023-03-27T19:56:12.320Z,0.95
2023-03-27T19:58:40.009Z,1.10
2023-03-27T20:01:07.697Z,0.98
2023-03-27T20:03:38.602Z,0.85
2023-03-27T20:06:12.282Z,1.33
2023-03-27T20:08:44.446Z,1.33
2023-03-27T20:11:12.186Z,0.80
2023-03-27T20:13:53.237Z,0.80
2023-03-27T20:16:25.000Z,0.50
2023-03-27T20:19:03.208Z,0.55
2023-03-27T20:21:32.404Z,0.87
2023-03-27T20:24:01.550Z,1.05
2023-03-27T20:26:29.938Z,0.60
2023-03-27T20:28:57.855Z,0.70
2023-03-27T20:31:25.697Z,0.77
2023-03-27T20:33:53.506Z,0.88
2023-03-27T20:36:23.179Z,1.05
2023-03-27T20:38:52.658Z,6.97
2023-03-27T20:41:21.868Z,2.00
2023-03-27T20:43:50.923Z,1.63
2023-03-27T20:46:18.788Z,1.45
2023-03-27T20:48:54.083Z,1.27
2023-03-27T20:51:24.070Z,1.65
2023-03-27T20:53:55.837Z,1.90
2023-03-27T20:56:25.760Z,2.22
2023-03-27T20:58:53.503Z,1.73
2023-03-27T21:01:27.278Z,1.90
2023-03-27T21:03:58.455Z,2.00
2023-03-27T21:06:26.472Z,2.00
2023-03-27T21:08:54.259Z,1.67
2023-03-27T21:11:22.039Z,1.48
2023-03-27T21:13:51.507Z,1.60
2023-03-27T21:16:19.274Z,1.50
2023-03-27T21:18:47.003Z,1.33
2023-03-27T21:21:14.683Z,1.40
2023-03-27T21:23:42.404Z,1.25
2023-03-27T21:26:10.098Z,1.33
2023-03-27T21:28:37.766Z,1.02
2023-03-27T21:31:08.999Z,1.10
2023-03-27T21:33:36.842Z,1.03
2023-03-27T21:36:04.922Z,1.13
2023-03-27T21:38:32.748Z,1.30
2023-03-27T21:41:02.307Z,1.15
2023-03-27T21:43:30.239Z,1.33
2023-03-27T21:46:00.201Z,0.95
2023-03-27T21:48:29.576Z,1.33
2023-03-27T21:51:00.081Z,1.08
2023-03-27T21:53:27.774Z,1.25
2023-03-27T21:55:56.527Z,1.13
2023-03-27T21:58:24.837Z,0.90
2023-03-27T22:00:52.828Z,1.15
2023-03-27T22:03:20.614Z,1.42
2023-03-27T22:06:01.026Z,1.42
2023-03-27T22:08:38.180Z,0.95
2023-03-27T22:11:06.621Z,1.20
2023-03-27T22:13:35.901Z,1.10
2023-03-27T22:16:07.653Z,1.67
2023-03-27T22:18:35.391Z,1.65
2023-03-27T22:21:14.652Z,1.80
2023-03-27T22:23:42.538Z,1.20
2023-03-27T22:26:10.284Z,1.08
2023-03-27T22:28:38.117Z,0.73
2023-03-27T22:31:06.247Z,1.38
2023-03-27T22:33:34.002Z,1.00
2023-03-27T22:36:01.997Z,1.08
2023-03-27T22:38:31.594Z,0.98
2023-03-27T22:40:59.584Z,1.23
2023-03-27T22:43:29.610Z,1.10
2023-03-27T22:45:58.095Z,1.55
2023-03-27T22:48:25.951Z,1.33
2023-03-27T22:50:57.278Z,0.93
2023-03-27T22:53:25.769Z,1.38
2023-03-27T22:55:57.036Z,1.00
2023-03-27T22:58:25.850Z,0.80
2023-03-27T23:00:54.871Z,1.08
2023-03-27T23:03:23.213Z,1.50
2023-03-27T23:05:51.809Z,1.00
2023-03-27T23:08:20.897Z,1.00
2023-03-27T23:10:57.292Z,0.80
2023-03-27T23:13:25.482Z,1.33
2023-03-27T23:15:53.237Z,1.13
2023-03-27T23:18:23.811Z,0.95
2023-03-27T23:20:55.004Z,1.23
2023-03-27T23:23:22.905Z,1.20
2023-03-27T23:25:50.928Z,1.30
2023-03-27T23:28:20.177Z,1.42
2023-03-27T23:30:53.864Z,1.05
2023-03-27T23:33:22.652Z,1.50
2023-03-27T23:35:50.577Z,1.25
2023-03-27T23:38:18.591Z,0.93
2023-03-27T23:40:46.294Z,1.25
2023-03-27T23:43:13.948Z,1.23
2023-03-27T23:45:43.914Z,1.05
2023-03-27T23:48:11.712Z,0.98
2023-03-27T23:50:39.471Z,0.90
2023-03-27T23:53:07.258Z,1.05
2023-03-27T23:55:34.996Z,1.25
2023-03-27T23:58:02.697Z,0.87
